KVLD/VLD METAR and TAF weather

Enter ICAO airport designator
Station Type Date Time Source
KVLD METAR 2020/01/21 08:53 UTC NOAA

KVLD 210853Z AUTO 36008KT 10SM CLR 00/M04 A3030 RMK AO2 SLP269 T00001044 56006 $


Station Type Date Time Source
KVLD Decoded METAR 2020/01/21 08:53 UTC NOAA

VALDOSTA REGIONAL AIRPORT, GA, United States (KVLD) 30-47N 083-16W
Jan 21, 2020 - 03:53 AM EST / 2020.01.21 0853 UTC
Wind: from the N (360 degrees) at 9 MPH (8 KT):0
Visibility: 10 mile(s):0
Sky conditions: clear
Temperature: 32.0 F (0.0 C)
Windchill: 24 F (-4 C):1
Dew Point: 24.1 F (-4.4 C)
Relative Humidity: 72%
Pressure (altimeter): 30.3 in. Hg (1026 hPa)
Pressure tendency: 0.02 inches (0.6 hPa) lower than three hours ago
ob: KVLD 210853Z AUTO 36008KT 10SM CLR 00/M04 A3030 RMK AO2 SLP269 T00001044 56006
cycle: 9

Station Type Date Time Source
KVLD TAF 2020/01/21 06:36 UTC NOAA

TAF KVLD 210535Z 2106/2206 00000KT P6SM SKC
FM211600 01008KT P6SM SCT080

Example: see airport list